Aérodrome :
LOGIN :

S'inscrire | Disclaimer

   EN    FR    IT 

 










Légende :    VFR   VFR Marginal   IFR   IFR Intensif   IFR Très Intensif
Visi : 
Plafond : 
>= 8 km
>= 3000ft
5 à 8 km
1000 à 3000 ft
1500m à 5 km
500 à 1000 ft
800 à 1500m
200 à 500 ft
< 800m
< 200 ft
Symboles :   Orages  Brouillard  Fortes neiges  Fortes précipitations  Vent > 20 kt
SIGMETs :   Divers  Orages  Givrage  Turbulence  Onde Orograph.  Cendres Volcan.







- Altitude de l'aérodrome : 353 ft
- Code IATA : ZAG


LDZA - Zagreb Pleso

DERNIER METAR :
  • 171700Z 10003KT 060V140 CAVOK 30/15 Q1017 NOSIG

METARs EXPIRÉS :
  • 171630Z 09003KT 050V160 CAVOK 31/15 Q1017 NOSIG
  • 171600Z VRB04KT CAVOK 31/15 Q1017 NOSIG
  • 171530Z VRB04KT CAVOK 32/14 Q1017 NOSIG
  • 171500Z VRB02KT CAVOK 32/14 Q1017 NOSIG
  • 171430Z VRB03KT CAVOK 32/15 Q1017 NOSIG

TAF TAF LDZA
Valide du 17 à 12h jusqu'au 18 à 12h UTC


171125Z 1712/1812 VRB02KT CAVOK TX32/1713Z TN17/1803Z
PROB40
TEMPO 1712/1717 05007KT
ATIS : +385 1 6-259-214
Pas de NOTAMs connus pour ce terrain.



MET'MAP, la Météo Aéronautique d'un coup d'oeil ! - Copyright ORBIFLY Décembre 2007 - Disclaimer

ORBIFLY MET'MAP TEAM :

Programmation & Développement : Alexandra Zaïnal
Conception & Développement : Baudouin d'Aumeries
Co-Programmation & Développement : Marc-Olivier Méhu
Soutien technique & logistique : Manuel Goepfert

Contact : metmap@orbifly.com




SOURCES & CREDITS :

   NOAA